createdAt,value
2022-09-21T00:00:52.458Z,100278.50
2022-09-21T00:01:49.256Z,100285.47
2022-09-21T00:02:45.987Z,100279.31
2022-09-21T00:03:43.426Z,100274.94
2022-09-21T00:04:40.232Z,100276.69
2022-09-21T00:05:37.070Z,100274.09
2022-09-21T00:06:34.167Z,100279.38
2022-09-21T00:07:30.884Z,100275.00
2022-09-21T00:08:28.779Z,100278.50
2022-09-21T00:09:26.155Z,100281.13
2022-09-21T00:10:25.766Z,100277.66
2022-09-21T00:11:27.619Z,100288.09
2022-09-21T00:12:24.521Z,100281.97
2022-09-21T00:13:21.457Z,100278.50
2022-09-21T00:14:19.809Z,100285.50
2022-09-21T00:15:22.472Z,100282.00
2022-09-21T00:16:19.789Z,100282.84
2022-09-21T00:17:16.771Z,100279.34
2022-09-21T00:18:14.145Z,100274.09
2022-09-21T00:19:11.170Z,100281.97
2022-09-21T00:20:08.220Z,100280.22
2022-09-21T00:21:13.349Z,100279.31
2022-09-21T00:22:10.952Z,100281.06
2022-09-21T00:23:07.743Z,100281.94
2022-09-21T00:24:05.592Z,100279.31
2022-09-21T00:25:03.550Z,100281.03
2022-09-21T00:26:11.096Z,100278.41
2022-09-21T00:27:07.909Z,100276.63
2022-09-21T00:28:04.595Z,100279.19
2022-09-21T00:29:02.318Z,100286.19
2022-09-21T00:30:01.789Z,100274.81
2022-09-21T00:31:02.833Z,100283.56
2022-09-21T00:31:59.709Z,100282.66
2022-09-21T00:32:56.681Z,100282.66
2022-09-21T00:33:53.658Z,100284.38
2022-09-21T00:34:51.661Z,100284.34
2022-09-21T00:35:48.476Z,100288.72
2022-09-21T00:36:45.316Z,100287.78
2022-09-21T00:37:42.151Z,100285.19
2022-09-21T00:38:39.049Z,100284.31
2022-09-21T00:39:36.135Z,100288.69
2022-09-21T00:40:33.057Z,100282.53
2022-09-21T00:41:31.646Z,100285.19
2022-09-21T00:42:31.239Z,100292.16
2022-09-21T00:43:28.164Z,100286.03
2022-09-21T00:44:34.073Z,100291.28
2022-09-21T00:45:31.406Z,100286.91
2022-09-21T00:46:29.532Z,100284.31
2022-09-21T00:47:31.683Z,100284.31
2022-09-21T00:48:29.072Z,100286.03
2022-09-21T00:49:25.817Z,100285.16
2022-09-21T00:50:22.788Z,100290.34
2022-09-21T00:51:19.596Z,100286.84
2022-09-21T00:52:16.567Z,100290.31
2022-09-21T00:53:13.342Z,100287.66
2022-09-21T00:54:14.799Z,100290.22
2022-09-21T00:55:17.579Z,100288.47
2022-09-21T00:56:14.458Z,100288.47
2022-09-21T00:57:11.353Z,100286.75
2022-09-21T00:58:15.664Z,100295.47
2022-09-21T00:59:13.727Z,100283.19
2022-09-21T01:00:10.971Z,100290.22
2022-09-21T01:01:07.944Z,100288.44
2022-09-21T01:02:05.351Z,100282.28
2022-09-21T01:03:02.255Z,100285.78
2022-09-21T01:03:59.038Z,100280.56
2022-09-21T01:04:55.961Z,100284.06
2022-09-21T01:05:52.774Z,100291.94
2022-09-21T01:06:50.455Z,100288.38
2022-09-21T01:07:47.651Z,100286.63
2022-09-21T01:08:44.510Z,100286.63
2022-09-21T01:09:41.954Z,100282.22
2022-09-21T01:11:08.466Z,100286.53
2022-09-21T01:12:27.009Z,100283.06
2022-09-21T01:13:41.950Z,100290.00
2022-09-21T01:14:53.977Z,100287.34
2022-09-21T01:15:50.773Z,100284.78
2022-09-21T01:17:02.690Z,100280.38
2022-09-21T01:18:08.580Z,100281.22
2022-09-21T01:19:34.913Z,100276.81
2022-09-21T01:21:08.519Z,100280.28
2022-09-21T01:22:53.223Z,100279.38
2022-09-21T01:24:02.946Z,100282.91
2022-09-21T01:25:14.624Z,100281.13
2022-09-21T01:26:26.151Z,100280.28
2022-09-21T01:27:31.020Z,100282.94
2022-09-21T01:28:50.080Z,100276.84
2022-09-21T01:29:52.162Z,100282.09
2022-09-21T01:30:49.984Z,100277.69
2022-09-21T01:32:09.600Z,100279.38
2022-09-21T01:33:22.771Z,100279.38
2022-09-21T01:34:44.026Z,100281.09
2022-09-21T01:35:52.449Z,100275.78
2022-09-21T01:36:49.303Z,100280.19
2022-09-21T01:37:51.074Z,100282.75
2022-09-21T01:38:52.566Z,100280.13
2022-09-21T01:39:52.214Z,100282.75
2022-09-21T01:40:54.093Z,100272.25
2022-09-21T01:41:52.037Z,100273.97
2022-09-21T01:42:49.478Z,100273.13
2022-09-21T01:43:48.400Z,100273.13
2022-09-21T01:44:45.641Z,100268.75
2022-09-21T01:45:45.814Z,100279.25
2022-09-21T01:46:43.019Z,100275.78
2022-09-21T01:47:40.544Z,100266.97
2022-09-21T01:48:38.952Z,100272.25
2022-09-21T01:49:40.567Z,100272.19
2022-09-21T01:50:40.442Z,100279.19
2022-09-21T01:51:44.197Z,100273.88
2022-09-21T01:52:48.093Z,100272.97
2022-09-21T01:53:56.566Z,100279.06
2022-09-21T01:54:57.256Z,100268.56
2022-09-21T01:55:58.521Z,100272.09
2022-09-21T01:57:01.317Z,100277.34
2022-09-21T01:58:04.175Z,100272.97
2022-09-21T01:59:07.374Z,100277.41
2022-09-21T02:00:04.715Z,100267.75
2022-09-21T02:01:01.678Z,100273.94
2022-09-21T02:02:04.135Z,100266.00
2022-09-21T02:03:06.045Z,100273.06
2022-09-21T02:04:05.887Z,100275.66
2022-09-21T02:05:03.189Z,100268.72
2022-09-21T02:06:00.323Z,100252.91
2022-09-21T02:06:57.166Z,100260.88
2022-09-21T02:07:54.064Z,100267.84
2022-09-21T02:08:50.865Z,100273.09
2022-09-21T02:09:47.849Z,100274.91
2022-09-21T02:10:53.972Z,100263.50
2022-09-21T02:11:50.774Z,100268.66
2022-09-21T02:12:48.617Z,100261.69
2022-09-21T02:13:46.146Z,100264.31
2022-09-21T02:14:43.123Z,100268.63
2022-09-21T02:15:58.620Z,100275.56
2022-09-21T02:17:25.118Z,100271.16
2022-09-21T02:18:30.118Z,100265.94
2022-09-21T02:19:44.551Z,100273.75
2022-09-21T02:20:57.172Z,100266.72
2022-09-21T02:22:04.561Z,100268.44
2022-09-21T02:23:06.754Z,100269.31
2022-09-21T02:24:46.663Z,100269.25
2022-09-21T02:25:47.624Z,100264.91
2022-09-21T02:26:47.825Z,100267.59
2022-09-21T02:27:59.654Z,100259.69
2022-09-21T02:29:01.662Z,100265.78
2022-09-21T02:30:02.983Z,100264.00
2022-09-21T02:31:06.093Z,100267.59
2022-09-21T02:32:08.380Z,100267.59
2022-09-21T02:33:42.408Z,100271.84
2022-09-21T02:34:47.541Z,100273.56
2022-09-21T02:35:50.817Z,100266.63
2022-09-21T02:36:50.047Z,100271.88
2022-09-21T02:37:49.543Z,100274.50
2022-09-21T02:38:57.304Z,100275.38
2022-09-21T02:40:04.650Z,100274.50
2022-09-21T02:41:12.378Z,100272.75
2022-09-21T02:42:16.498Z,100268.41
2022-09-21T02:43:20.801Z,100276.25
2022-09-21T02:44:20.792Z,100267.53
2022-09-21T02:45:21.349Z,100266.63
2022-09-21T02:46:27.219Z,100270.13
2022-09-21T02:47:27.751Z,100267.56
2022-09-21T02:48:32.029Z,100271.06
2022-09-21T02:49:34.207Z,100267.59
2022-09-21T02:50:39.343Z,100263.19
2022-09-21T02:51:39.185Z,100270.22
2022-09-21T02:52:36.173Z,100257.97
2022-09-21T02:53:36.423Z,100268.56
2022-09-21T02:54:33.476Z,100264.16
2022-09-21T02:55:30.522Z,100264.16
2022-09-21T02:56:27.537Z,100267.66
2022-09-21T02:57:24.493Z,100265.00
2022-09-21T02:58:21.546Z,100257.06
2022-09-21T02:59:18.356Z,100265.78
2022-09-21T03:00:16.083Z,100267.56
2022-09-21T03:01:13.310Z,100276.25
2022-09-21T03:02:11.746Z,100257.88
2022-09-21T03:03:18.870Z,100260.50
2022-09-21T03:04:16.387Z,100265.72
2022-09-21T03:05:13.837Z,100270.09
2022-09-21T03:06:10.780Z,100270.06
2022-09-21T03:07:08.658Z,100270.06
2022-09-21T03:08:06.792Z,100264.81
2022-09-21T03:09:03.978Z,100263.94
2022-09-21T03:10:00.991Z,100270.03
2022-09-21T03:10:58.039Z,100270.00
2022-09-21T03:11:54.946Z,100263.81
2022-09-21T03:12:51.824Z,100263.81
2022-09-21T03:13:48.756Z,100263.75
2022-09-21T03:14:45.556Z,100262.81
2022-09-21T03:15:42.402Z,100268.03
2022-09-21T03:16:39.301Z,100266.22
2022-09-21T03:17:36.088Z,100264.44
2022-09-21T03:18:33.331Z,100271.38
2022-09-21T03:19:30.334Z,100267.81
2022-09-21T03:20:27.247Z,100273.00
2022-09-21T03:21:24.156Z,100272.97
2022-09-21T03:22:22.602Z,100270.31
2022-09-21T03:23:19.546Z,100270.28
2022-09-21T03:24:36.551Z,100275.47
2022-09-21T03:25:33.731Z,100273.69
2022-09-21T03:26:30.721Z,100271.03
2022-09-21T03:27:28.025Z,100272.72
2022-09-21T03:28:24.894Z,100275.38
2022-09-21T03:29:21.798Z,100276.19
2022-09-21T03:30:18.580Z,100280.66
2022-09-21T03:31:15.563Z,100272.00
2022-09-21T03:32:12.418Z,100268.56
2022-09-21T03:33:09.388Z,100268.56
2022-09-21T03:34:06.280Z,100270.31
2022-09-21T03:35:03.114Z,100273.72
2022-09-21T03:36:00.040Z,100267.56
2022-09-21T03:36:57.307Z,100269.25
2022-09-21T03:37:55.455Z,100268.41
2022-09-21T03:38:52.263Z,100270.09
2022-09-21T03:39:49.238Z,100270.94
2022-09-21T03:40:46.789Z,100277.91
2022-09-21T03:41:44.239Z,100273.56
2022-09-21T03:42:41.344Z,100270.94
2022-09-21T03:43:38.393Z,100271.75
2022-09-21T03:44:37.211Z,100277.81
2022-09-21T03:45:34.021Z,100275.16
2022-09-21T03:46:31.040Z,100273.38
2022-09-21T03:47:29.514Z,100278.63
2022-09-21T03:48:26.332Z,100282.97
2022-09-21T03:49:23.322Z,100276.00
2022-09-21T03:50:20.335Z,100282.13
2022-09-21T03:51:17.308Z,100281.19
2022-09-21T03:52:14.170Z,100277.66
2022-09-21T03:53:11.084Z,100276.81
2022-09-21T03:54:08.017Z,100280.28
2022-09-21T03:55:06.631Z,100275.03
2022-09-21T03:56:03.439Z,100279.41
2022-09-21T03:57:00.203Z,100282.03
2022-09-21T03:57:57.114Z,100282.00
2022-09-21T03:58:54.131Z,100280.19
2022-09-21T03:59:51.179Z,100275.88
2022-09-21T04:00:48.002Z,100281.16
2022-09-21T04:01:44.962Z,100281.16
2022-09-21T04:02:42.376Z,100281.16
2022-09-21T04:03:39.364Z,100280.25
2022-09-21T04:04:37.227Z,100281.09
2022-09-21T04:05:34.262Z,100281.94
2022-09-21T04:06:31.134Z,100291.53
2022-09-21T04:07:32.394Z,100273.97
2022-09-21T04:08:29.282Z,100278.31
2022-09-21T04:09:26.163Z,100280.09
2022-09-21T04:10:27.284Z,100282.78
2022-09-21T04:11:24.755Z,100280.22
2022-09-21T04:12:22.455Z,100282.00
2022-09-21T04:13:19.553Z,100288.06
2022-09-21T04:14:17.572Z,100285.41
2022-09-21T04:15:15.767Z,100284.53
2022-09-21T04:16:12.713Z,100274.00
2022-09-21T04:17:09.963Z,100280.13
2022-09-21T04:18:07.593Z,100277.47
2022-09-21T04:19:04.681Z,100278.34
2022-09-21T04:20:01.757Z,100281.84
2022-09-21T04:20:58.881Z,100281.84
2022-09-21T04:21:56.273Z,100280.09
2022-09-21T04:22:53.151Z,100277.44
2022-09-21T04:23:50.063Z,100277.47
2022-09-21T04:24:47.077Z,100280.03
2022-09-21T04:25:44.179Z,100287.00
2022-09-21T04:26:41.261Z,100280.03
2022-09-21T04:27:38.147Z,100284.38
2022-09-21T04:28:35.125Z,100280.88
2022-09-21T04:29:31.900Z,100278.19
2022-09-21T04:30:29.186Z,100281.69
2022-09-21T04:31:26.595Z,100275.56
2022-09-21T04:32:23.696Z,100288.69
2022-09-21T04:33:20.731Z,100278.19
2022-09-21T04:34:17.574Z,100280.78
2022-09-21T04:35:14.598Z,100285.19
2022-09-21T04:36:11.431Z,100281.69
2022-09-21T04:37:08.391Z,100277.34
2022-09-21T04:38:05.198Z,100286.09
2022-09-21T04:39:02.087Z,100275.59
2022-09-21T04:39:59.076Z,100288.69
2022-09-21T04:40:56.936Z,100284.28
2022-09-21T04:41:53.821Z,100279.91
2022-09-21T04:42:53.658Z,100285.19
2022-09-21T04:43:50.788Z,100285.19
2022-09-21T04:44:47.816Z,100280.84
2022-09-21T04:45:44.791Z,100281.72
2022-09-21T04:46:42.576Z,100284.38
2022-09-21T04:47:39.573Z,100285.22
2022-09-21T04:48:36.440Z,100281.75
2022-09-21T04:49:36.462Z,100291.34
2022-09-21T04:50:36.094Z,100291.34
2022-09-21T04:51:33.245Z,100289.66
2022-09-21T04:52:30.091Z,100294.88
2022-09-21T04:53:27.090Z,100291.44
2022-09-21T04:54:24.173Z,100293.16
2022-09-21T04:55:20.985Z,100294.88
2022-09-21T04:56:18.070Z,100289.66
2022-09-21T04:57:15.086Z,100291.34
2022-09-21T04:58:12.016Z,100294.94
2022-09-21T04:59:08.899Z,100297.59
2022-09-21T05:00:06.607Z,100305.50
2022-09-21T05:01:04.626Z,100295.81
2022-09-21T05:02:01.569Z,100303.69
2022-09-21T05:02:58.475Z,100302.78
2022-09-21T05:03:55.578Z,100297.56
2022-09-21T05:04:52.452Z,100296.66
2022-09-21T05:05:49.875Z,100304.44
2022-09-21T05:06:46.785Z,100302.69
2022-09-21T05:07:43.678Z,100292.19
2022-09-21T05:08:59.221Z,100304.44
2022-09-21T05:10:04.900Z,100295.72
2022-09-21T05:11:02.177Z,100304.47
2022-09-21T05:11:59.034Z,100303.59
2022-09-21T05:12:55.993Z,100301.91
2022-09-21T05:13:52.862Z,100308.91
2022-09-21T05:14:49.765Z,100301.06
2022-09-21T05:15:46.792Z,100305.41
2022-09-21T05:16:43.906Z,100309.84
2022-09-21T05:17:42.409Z,100311.53
2022-09-21T05:18:39.292Z,100302.78
2022-09-21T05:19:36.295Z,100308.13
2022-09-21T05:20:33.364Z,100310.78
2022-09-21T05:21:31.715Z,100309.84
2022-09-21T05:22:28.601Z,100315.16
2022-09-21T05:23:25.726Z,100310.81
2022-09-21T05:24:22.518Z,100319.59
2022-09-21T05:25:19.408Z,100318.72
2022-09-21T05:26:16.336Z,100316.13
2022-09-21T05:27:13.444Z,100312.63
2022-09-21T05:28:10.674Z,100307.44
2022-09-21T05:29:08.573Z,100308.28
2022-09-21T05:30:06.498Z,100313.56
2022-09-21T05:31:17.114Z,100316.22
2022-09-21T05:32:23.523Z,100314.56
2022-09-21T05:33:20.756Z,100313.69
2022-09-21T05:34:22.857Z,100318.94
2022-09-21T05:35:24.828Z,100317.25
2022-09-21T05:36:24.192Z,100319.91
2022-09-21T05:37:41.011Z,100315.50
2022-09-21T05:38:38.187Z,100322.56
2022-09-21T05:39:35.376Z,100325.28
2022-09-21T05:40:32.892Z,100320.97
2022-09-21T05:41:30.025Z,100324.47
2022-09-21T05:42:27.203Z,100318.44
2022-09-21T05:43:24.491Z,100317.59
2022-09-21T05:44:22.077Z,100318.53
2022-09-21T05:45:19.770Z,100325.53
2022-09-21T05:46:35.089Z,100327.34
2022-09-21T05:48:11.589Z,100328.28
2022-09-21T05:49:29.796Z,100331.81
2022-09-21T05:50:41.306Z,100324.97
2022-09-21T05:52:08.606Z,100323.31
2022-09-21T05:53:24.208Z,100326.06
2022-09-21T05:54:45.473Z,100320.97
2022-09-21T05:56:21.496Z,100325.53
2022-09-21T05:58:06.529Z,100323.97
2022-09-21T05:59:10.803Z,100326.72
2022-09-21T06:00:17.888Z,100325.13
2022-09-21T06:01:36.542Z,100327.00
2022-09-21T06:02:39.444Z,100326.28
2022-09-21T06:03:36.481Z,100322.88
2022-09-21T06:04:36.258Z,100324.69
2022-09-21T06:05:33.222Z,100324.81
2022-09-21T06:06:30.252Z,100327.53
2022-09-21T06:07:27.566Z,100327.66
2022-09-21T06:08:25.299Z,100325.09
2022-09-21T06:09:22.242Z,100324.28
2022-09-21T06:10:19.097Z,100328.75
2022-09-21T06:11:16.089Z,100326.19
2022-09-21T06:12:13.134Z,100329.72
2022-09-21T06:13:10.067Z,100331.56
2022-09-21T06:14:07.090Z,100328.97
2022-09-21T06:15:05.611Z,100329.03
2022-09-21T06:16:03.497Z,100323.88
2022-09-21T06:17:00.557Z,100335.31
2022-09-21T06:17:59.249Z,100331.84
2022-09-21T06:18:56.176Z,100338.94
2022-09-21T06:19:53.727Z,100334.56
2022-09-21T06:20:50.676Z,100339.00
2022-09-21T06:21:49.929Z,100333.81
2022-09-21T06:22:47.097Z,100331.25
2022-09-21T06:23:44.283Z,100333.09
2022-09-21T06:24:41.156Z,100337.56
2022-09-21T06:25:37.940Z,100330.59
2022-09-21T06:26:34.714Z,100338.56
2022-09-21T06:27:31.559Z,100333.34
2022-09-21T06:28:29.869Z,100336.91
2022-09-21T06:29:26.757Z,100336.06
2022-09-21T06:30:23.578Z,100337.94
2022-09-21T06:31:20.525Z,100338.00
2022-09-21T06:32:17.369Z,100339.81
2022-09-21T06:33:20.266Z,100342.53
2022-09-21T06:34:17.818Z,100339.91
2022-09-21T06:35:14.809Z,100332.97
2022-09-21T06:36:11.828Z,100338.25
2022-09-21T06:37:09.227Z,100336.56
2022-09-21T06:38:08.902Z,100341.00
2022-09-21T06:39:05.952Z,100346.28
2022-09-21T06:40:03.258Z,100335.75
2022-09-21T06:41:03.243Z,100336.72
2022-09-21T06:42:00.130Z,100335.84
2022-09-21T06:43:00.358Z,100343.78
2022-09-21T06:43:57.562Z,100342.94
2022-09-21T06:44:55.773Z,100344.75
2022-09-21T06:45:56.447Z,100337.72
2022-09-21T06:46:53.448Z,100340.34
2022-09-21T06:47:50.545Z,100346.53
2022-09-21T06:48:48.846Z,100343.03
2022-09-21T06:49:45.839Z,100343.94
2022-09-21T06:50:42.889Z,100345.69
2022-09-21T06:51:39.971Z,100337.81
2022-09-21T06:52:41.318Z,100339.53
2022-09-21T07:17:20.430Z,100335.50
2022-09-21T07:18:20.106Z,100340.66
2022-09-21T07:19:22.952Z,100325.66
2022-09-21T07:20:23.244Z,100330.88
2022-09-21T07:21:20.426Z,100319.31
2022-09-21T07:22:17.369Z,100336.00
2022-09-21T07:24:13.940Z,100336.81
2022-09-21T07:57:40.800Z,100331.69
2022-09-21T09:36:12.430Z,100316.00
2022-09-21T09:37:13.789Z,100325.25
2022-09-21T09:38:19.354Z,100327.69
2022-09-21T09:39:16.565Z,100322.91
2022-09-21T09:40:14.028Z,100325.09
2022-09-21T09:41:45.796Z,100328.66
2022-09-21T10:05:39.060Z,100317.63
2022-09-21T10:06:36.504Z,100313.13
2022-09-21T10:07:40.401Z,100315.91
2022-09-21T10:08:37.117Z,100314.63
2022-09-21T10:09:34.491Z,100312.34
2022-09-21T10:10:37.247Z,100311.19
2022-09-21T10:11:35.503Z,100310.56
2022-09-21T10:12:32.459Z,100308.28
2022-09-21T10:13:36.425Z,100317.28
2022-09-21T10:14:34.576Z,100310.25
2022-09-21T10:15:31.450Z,100314.34
2022-09-21T10:16:28.363Z,100308.56
2022-09-21T10:17:25.555Z,100306.59
2022-09-21T10:19:01.928Z,100307.47
2022-09-21T10:20:02.488Z,100307.75
2022-09-21T10:21:02.094Z,100307.34
2022-09-21T10:22:00.068Z,100307.78
2022-09-21T10:22:59.595Z,100299.91
2022-09-21T10:24:08.161Z,100312.16
2022-09-21T10:25:15.600Z,100308.09
2022-09-21T10:26:13.065Z,100312.59
2022-09-21T10:27:16.125Z,100308.16
2022-09-21T10:28:14.601Z,100297.56
2022-09-21T10:29:49.539Z,100305.47
2022-09-21T10:30:52.669Z,100306.22
2022-09-21T10:32:01.375Z,100305.44
2022-09-21T10:33:04.679Z,100295.66
2022-09-21T10:34:14.362Z,100289.53
2022-09-21T10:35:27.906Z,100289.66
2022-09-21T10:36:27.281Z,100295.72
2022-09-21T10:40:19.729Z,100299.78
2022-09-21T10:41:22.668Z,100293.97
2022-09-21T10:42:26.430Z,100296.75
2022-09-21T10:43:42.645Z,100302.38
2022-09-21T10:44:49.084Z,100299.25
2022-09-21T10:45:58.323Z,100297.09
2022-09-21T10:48:19.907Z,100296.47
2022-09-21T10:49:26.702Z,100284.91
2022-09-21T10:50:33.274Z,100293.78
2022-09-21T10:52:00.638Z,100287.97
2022-09-21T10:53:42.065Z,100288.94
2022-09-21T10:54:40.888Z,100282.59
2022-09-21T10:56:17.990Z,100293.81
2022-09-21T10:57:20.258Z,100290.78
2022-09-21T10:58:35.018Z,100285.34
2022-09-21T10:59:39.002Z,100284.13
2022-09-21T11:00:45.481Z,100294.25
2022-09-21T11:01:49.566Z,100284.22
2022-09-21T11:02:52.385Z,100284.66
2022-09-21T11:04:15.712Z,100286.72
2022-09-21T11:05:56.094Z,100284.19
2022-09-21T11:09:14.345Z,100291.19
2022-09-21T11:10:19.598Z,100290.25
2022-09-21T11:12:18.323Z,100285.63
2022-09-21T11:14:27.264Z,100291.84
2022-09-21T11:16:04.226Z,100290.03
2022-09-21T11:18:09.063Z,100295.44
2022-09-21T11:19:42.903Z,100296.19
2022-09-21T11:21:09.416Z,100285.53
2022-09-21T11:22:43.659Z,100288.09
2022-09-21T11:24:28.438Z,100295.16
2022-09-21T11:26:17.814Z,100287.50
2022-09-21T11:28:15.951Z,100280.69
2022-09-21T11:29:24.047Z,100286.84
2022-09-21T11:30:21.984Z,100282.19
2022-09-21T11:33:35.745Z,100293.91
2022-09-21T11:34:51.518Z,100286.00
2022-09-21T11:36:03.391Z,100286.25
2022-09-21T11:37:16.028Z,100283.28
2022-09-21T11:38:34.324Z,100287.28
2022-09-21T11:39:50.948Z,100291.97
2022-09-21T11:40:59.395Z,100290.94
2022-09-21T11:42:19.120Z,100286.41
2022-09-21T11:43:58.665Z,100284.38
2022-09-21T11:45:13.938Z,100281.66
2022-09-21T11:46:37.851Z,100282.91
2022-09-21T11:47:43.621Z,100285.13
2022-09-21T11:49:00.323Z,100281.78
2022-09-21T11:50:36.362Z,100272.81
2022-09-21T11:52:11.174Z,100282.38
2022-09-21T11:53:45.100Z,100282.31
2022-09-21T11:54:44.879Z,100279.84
2022-09-21T11:56:21.308Z,100285.75
2022-09-21T11:57:36.708Z,100279.69
2022-09-21T11:59:16.158Z,100282.59
2022-09-21T12:00:24.625Z,100280.38
2022-09-21T12:01:55.086Z,100279.06
2022-09-21T12:06:02.616Z,100265.78
2022-09-21T12:07:33.756Z,100270.56
2022-09-21T12:08:50.361Z,100269.75
2022-09-21T12:10:34.390Z,100266.91
2022-09-21T12:12:00.357Z,100259.78
2022-09-21T12:13:27.158Z,100263.16
2022-09-21T12:16:26.087Z,100266.66
2022-09-21T12:17:59.611Z,100258.03
2022-09-21T12:19:15.910Z,100255.91
2022-09-21T12:20:48.403Z,100258.34
2022-09-21T12:22:35.443Z,100261.81
2022-09-21T12:24:45.120Z,100259.06
2022-09-21T12:26:13.017Z,100255.91
2022-09-21T12:27:39.722Z,100256.00
2022-09-21T12:28:47.281Z,100262.91
2022-09-21T12:30:32.060Z,100252.81
2022-09-21T12:35:08.411Z,100259.53
2022-09-21T12:36:42.408Z,100259.16
2022-09-21T12:38:24.356Z,100257.13
2022-09-21T12:40:41.217Z,100261.38
2022-09-21T12:44:27.807Z,100257.13
2022-09-21T12:47:21.074Z,100243.25
2022-09-21T12:51:51.685Z,100232.53
2022-09-21T12:53:57.511Z,100245.97
2022-09-21T12:56:10.000Z,100243.31
2022-09-21T12:58:13.927Z,100235.38
2022-09-21T12:59:43.930Z,100236.41
2022-09-21T13:01:46.072Z,100240.25
2022-09-21T13:03:11.586Z,100236.13
2022-09-21T13:21:27.233Z,100216.34
2022-09-21T13:22:47.788Z,100214.94
2022-09-21T13:24:07.024Z,100221.78
2022-09-21T13:25:19.904Z,100212.66
2022-09-21T13:30:10.541Z,100215.91
2022-09-21T13:31:53.155Z,100217.78
2022-09-21T13:33:26.634Z,100215.28
2022-09-21T13:34:47.472Z,100214.50
2022-09-21T13:36:46.254Z,100220.03
2022-09-21T13:38:12.920Z,100210.00
2022-09-21T13:39:13.075Z,100206.41
2022-09-21T13:40:23.082Z,100213.75
2022-09-21T13:56:27.333Z,100194.53
2022-09-21T13:57:37.026Z,100204.84
2022-09-21T13:59:19.095Z,100204.19
2022-09-21T14:00:27.717Z,100203.44
2022-09-21T14:01:47.629Z,100202.06
2022-09-21T14:03:03.887Z,100199.59
2022-09-21T14:04:25.583Z,100191.84
2022-09-21T14:05:51.523Z,100194.69
2022-09-21T14:07:07.862Z,100189.00
2022-09-21T14:09:41.820Z,100190.75
2022-09-21T14:10:39.266Z,100189.66
2022-09-21T14:11:40.962Z,100187.75
2022-09-21T14:12:45.381Z,100193.56
2022-09-21T14:14:36.576Z,100203.56
2022-09-21T14:16:38.035Z,100196.94
2022-09-21T14:18:01.966Z,100196.31
2022-09-21T14:19:13.466Z,100189.75
2022-09-21T14:20:48.459Z,100188.56
2022-09-21T14:22:18.373Z,100192.22
2022-09-21T14:23:25.818Z,100195.00
2022-09-21T14:24:46.677Z,100188.44
2022-09-21T14:26:27.870Z,100182.94
2022-09-21T14:27:53.744Z,100190.41
2022-09-21T14:29:19.344Z,100177.72
2022-09-21T14:30:48.359Z,100173.28
2022-09-21T14:32:07.890Z,100176.84
2022-09-21T14:33:32.058Z,100173.25
2022-09-21T14:34:52.232Z,100177.94
2022-09-21T14:36:04.295Z,100173.91
2022-09-21T14:37:47.175Z,100167.50
2022-09-21T14:39:02.147Z,100174.78
2022-09-21T14:40:25.130Z,100177.91
2022-09-21T14:41:43.023Z,100179.63
2022-09-21T14:42:51.487Z,100170.41
2022-09-21T14:44:05.911Z,100170.06
2022-09-21T14:45:07.184Z,100168.94
2022-09-21T14:49:03.737Z,100172.94
2022-09-21T14:50:20.291Z,100167.31
2022-09-21T14:52:04.248Z,100169.31
2022-09-21T15:02:00.300Z,100159.84
2022-09-21T15:04:20.360Z,100153.00
2022-09-21T16:03:32.078Z,100133.94
2022-09-21T16:05:08.522Z,100132.75
2022-09-21T16:08:55.069Z,100137.97
2022-09-21T16:10:06.003Z,100126.75
2022-09-21T16:11:44.798Z,100135.69
2022-09-21T16:15:04.594Z,100131.13
2022-09-21T16:16:20.862Z,100131.81
2022-09-21T16:19:17.762Z,100133.41
2022-09-21T16:20:37.527Z,100134.09
2022-09-21T16:21:48.156Z,100128.97
2022-09-21T16:23:13.709Z,100137.56
2022-09-21T16:24:45.060Z,100132.06
2022-09-21T16:26:18.032Z,100124.34
2022-09-21T16:27:18.612Z,100125.34
2022-09-21T16:28:18.109Z,100133.97
2022-09-21T16:29:26.658Z,100128.16
2022-09-21T16:30:40.404Z,100134.56
2022-09-21T16:31:37.478Z,100136.25
2022-09-21T16:32:34.607Z,100139.75
2022-09-21T16:33:51.478Z,100138.75
2022-09-21T16:34:55.072Z,100138.75
2022-09-21T16:35:52.624Z,100134.34
2022-09-21T16:36:51.504Z,100135.94
2022-09-21T16:37:49.202Z,100136.00
2022-09-21T16:38:55.285Z,100125.78
2022-09-21T16:40:37.976Z,100128.19
2022-09-21T16:42:19.478Z,100136.59
2022-09-21T16:43:26.465Z,100133.28
2022-09-21T16:44:54.634Z,100138.81
2022-09-21T16:46:14.569Z,100127.16
2022-09-21T16:47:17.085Z,100135.34
2022-09-21T16:48:25.018Z,100131.50
2022-09-21T16:49:43.963Z,100132.63
2022-09-21T16:50:44.087Z,100142.53
2022-09-21T16:51:43.671Z,100133.47
2022-09-21T16:52:41.640Z,100135.59
2022-09-21T16:54:06.797Z,100131.63
2022-09-21T16:56:53.282Z,100145.22
2022-09-21T16:57:58.382Z,100128.97
2022-09-21T16:59:07.104Z,100132.91
2022-09-21T17:00:21.845Z,100145.53
2022-09-21T17:01:39.696Z,100133.25
2022-09-21T17:05:43.368Z,100139.78
2022-09-21T17:06:55.036Z,100134.00
2022-09-21T17:08:29.849Z,100136.44
2022-09-21T17:09:52.548Z,100140.75
2022-09-21T17:11:04.007Z,100136.50
2022-09-21T17:12:19.062Z,100135.41
2022-09-21T17:13:37.505Z,100138.16
2022-09-21T17:14:55.382Z,100132.56
2022-09-21T17:15:57.007Z,100133.63
2022-09-21T17:17:25.942Z,100144.75
2022-09-21T17:18:30.264Z,100139.25
2022-09-21T17:19:44.372Z,100147.91
2022-09-21T17:20:51.626Z,100151.56
2022-09-21T17:22:04.286Z,100150.66
2022-09-21T17:26:56.729Z,100145.53
2022-09-21T17:28:32.796Z,100152.78
2022-09-21T17:30:13.157Z,100148.78
2022-09-21T17:31:37.378Z,100151.59
2022-09-21T17:32:38.624Z,100154.50
2022-09-21T17:33:39.268Z,100154.28
2022-09-21T17:34:36.830Z,100166.13
2022-09-21T17:35:37.186Z,100159.66
2022-09-21T17:36:37.448Z,100160.97
2022-09-21T17:37:34.699Z,100165.69
2022-09-21T17:38:34.378Z,100160.78
2022-09-21T17:39:32.144Z,100161.13
2022-09-21T17:40:30.034Z,100154.34
2022-09-21T17:41:37.165Z,100156.50
2022-09-21T17:42:35.856Z,100163.78
2022-09-21T17:43:44.230Z,100154.47
2022-09-21T17:45:12.826Z,100166.19
2022-09-21T17:46:38.553Z,100163.06
2022-09-21T17:47:36.203Z,100159.84
2022-09-21T17:48:34.353Z,100173.19
2022-09-21T17:49:42.348Z,100163.56
2022-09-21T17:50:56.702Z,100164.66
2022-09-21T17:52:17.479Z,100170.97
2022-09-21T17:57:29.094Z,100164.53
2022-09-21T17:58:46.202Z,100177.06
2022-09-21T18:00:14.385Z,100181.72
2022-09-21T18:01:46.929Z,100176.66
2022-09-21T18:03:13.449Z,100172.38
2022-09-21T18:04:38.372Z,100183.03
2022-09-21T18:06:08.042Z,100170.78
2022-09-21T18:07:33.867Z,100184.91
2022-09-21T18:09:09.703Z,100166.53
2022-09-21T18:10:16.839Z,100178.94
2022-09-21T18:11:44.928Z,100186.00
2022-09-21T18:13:07.555Z,100182.63
2022-09-21T18:14:29.406Z,100182.75